Time;durP1;ratioP1;P1;durP2;ratioP2;P2;SDS_P1;SDS_P2;PMS_P1;PMS_P2;Temp;Humidity;BMP_temperature;BMP_pressure;BME280_temperature;BME280_humidity;BME280_pressure;Samples;Min_cycle;Max_cycle;Signal;HPM_P1;HPM_P2
2021/09/10 00:05:49;;;;;;;16.40;13.50;;;19.20;68.10;;;;;;4813023;29;20191;-96
2021/09/10 00:11:47;;;;;;;16.73;13.48;;;19.00;68.10;;;;;;4812125;29;20045;-96
2021/09/10 00:17:40;;;;;;;17.25;13.75;;;18.90;68.40;;;;;;4812879;29;20041;-95
2021/09/10 00:23:34;;;;;;;16.27;13.00;;;18.80;68.70;;;;;;4811525;29;20041;-94
2021/09/10 00:33:01;;;;;;;17.60;15.50;;;18.60;69.00;;;;;;4829897;29;20137;-95
2021/09/10 00:38:51;;;;;;;17.00;14.07;;;18.40;69.30;;;;;;4829384;29;20086;-96
2021/09/10 00:44:44;;;;;;;17.90;14.50;;;18.40;69.70;;;;;;4830419;29;20103;-96
2021/09/10 00:50:34;;;;;;;20.70;16.33;;;18.30;69.90;;;;;;4792522;29;20053;-96
2021/09/10 00:56:46;;;;;;;17.17;15.35;;;18.20;70.30;;;;;;4791938;30;20047;-96
2021/09/10 01:02:36;;;;;;;21.45;17.10;;;18.10;70.40;;;;;;4790707;30;20057;-95
2021/09/10 01:08:59;;;;;;;28.00;24.58;;;18.10;70.70;;;;;;4791040;30;20477;-95
2021/09/10 01:15:24;;;;;;;27.70;22.05;;;18.00;71.10;;;;;;4795188;30;20042;-95
2021/09/10 01:21:39;;;;;;;21.40;17.23;;;18.00;71.60;;;;;;4831978;29;20137;-96
2021/09/10 01:27:42;;;;;;;20.33;17.08;;;18.00;71.80;;;;;;4851081;29;20099;-94
2021/09/10 01:33:47;;;;;;;18.58;15.65;;;17.90;71.70;;;;;;4850945;29;20048;-95
2021/09/10 01:40:00;;;;;;;18.17;16.20;;;17.90;71.90;;;;;;4833977;29;20052;-94
2021/09/10 01:46:08;;;;;;;22.52;18.17;;;17.80;72.00;;;;;;4843416;29;20064;-93
2021/09/10 01:52:12;;;;;;;21.02;17.15;;;17.60;72.10;;;;;;4835145;29;20073;-94
2021/09/10 01:58:28;;;;;;;22.00;18.20;;;17.60;72.30;;;;;;4850187;29;20082;-94
2021/09/10 02:04:56;;;;;;;22.38;18.15;;;17.50;72.60;;;;;;4833302;29;20310;-91
2021/09/10 02:10:51;;;;;;;24.08;19.45;;;17.40;72.90;;;;;;4830921;29;20056;-93
2021/09/10 02:16:47;;;;;;;25.15;20.05;;;17.30;73.00;;;;;;4831310;29;20041;-93
2021/09/10 02:22:39;;;;;;;29.45;22.73;;;17.30;73.30;;;;;;4830030;29;20076;-94
2021/09/10 02:28:28;;;;;;;27.65;21.55;;;17.20;73.50;;;;;;4830978;29;20053;-93
2021/09/10 02:34:21;;;;;;;27.58;20.45;;;17.20;73.70;;;;;;4850404;29;20044;-88
2021/09/10 02:40:12;;;;;;;28.55;21.88;;;17.10;73.80;;;;;;4835611;29;20440;-93
2021/09/10 02:46:03;;;;;;;34.72;26.58;;;17.10;74.00;;;;;;4830498;29;20544;-94
2021/09/10 02:51:58;;;;;;;36.92;28.38;;;17.00;74.00;;;;;;4830196;29;20061;-94
2021/09/10 02:57:47;;;;;;;35.90;27.75;;;17.00;74.20;;;;;;4831188;29;20053;-93
2021/09/10 03:03:36;;;;;;;31.08;24.67;;;16.90;74.40;;;;;;4829453;29;20082;-94
2021/09/10 03:09:27;;;;;;;31.92;25.08;;;16.80;74.40;;;;;;4830704;29;20045;-93
2021/09/10 03:15:22;;;;;;;29.23;22.00;;;16.80;74.60;;;;;;4829716;29;20164;-94
2021/09/10 03:21:16;;;;;;;32.10;23.75;;;16.70;74.70;;;;;;4845069;29;20551;-93
2021/09/10 03:27:09;;;;;;;38.72;28.50;;;16.60;74.70;;;;;;4830500;29;20065;-94
2021/09/10 03:32:57;;;;;;;32.85;23.65;;;16.50;74.90;;;;;;4829839;29;20498;-95
2021/09/10 03:38:47;;;;;;;33.13;23.05;;;16.50;75.10;;;;;;4829666;29;20502;-95
2021/09/10 03:44:36;;;;;;;25.33;20.15;;;16.40;75.10;;;;;;4833356;29;20075;-96
2021/09/10 03:58:43;;;;;;;;;;;;;;;;;;;;;
2021/09/10 04:05:37;;;;;;;;;;;;;;;;;;;;;
2021/09/10 04:18:21;;;;;;;28.02;21.48;;;16.30;76.10;;;;;;4675469;30;20515;-94
2021/09/10 04:37:34;;;;;;;;;;;;;;;;;;;;;
2021/09/10 04:43:33;;;;;;;40.70;32.88;;;16.40;76.70;;;;;;4830050;29;20041;-94
2021/09/10 04:49:46;;;;;;;36.10;29.48;;;16.30;77.00;;;;;;4834264;29;20050;-95
2021/09/10 04:55:58;;;;;;;33.97;27.88;;;16.40;77.20;;;;;;4835919;29;20034;-95
2021/09/10 05:02:09;;;;;;;31.65;25.35;;;16.50;77.20;;;;;;4837578;29;20053;-96
2021/09/10 05:07:59;;;;;;;31.38;24.92;;;16.60;77.20;;;;;;4837525;29;20506;-96
2021/09/10 05:13:54;;;;;;;29.50;24.15;;;16.60;77.10;;;;;;4851832;29;20052;-88
2021/09/10 05:19:47;;;;;;;30.70;25.52;;;16.70;77.20;;;;;;4828056;29;20121;-84
2021/09/10 05:25:35;;;;;;;32.38;25.27;;;16.80;77.10;;;;;;4827373;29;20543;-85
2021/09/10 05:31:26;;;;;;;32.15;25.52;;;16.90;77.10;;;;;;4827048;29;20058;-84
2021/09/10 05:37:17;;;;;;;30.75;22.70;;;16.90;77.00;;;;;;4827679;29;20440;-85
2021/09/10 05:43:06;;;;;;;26.63;22.00;;;17.00;77.10;;;;;;4849859;29;20033;-86
2021/09/10 05:55:40;;;;;;;21.38;17.88;;;17.20;77.30;;;;;;4764562;29;20044;-88
2021/09/10 06:01:29;;;;;;;18.30;15.10;;;17.30;77.40;;;;;;4836915;29;20041;-87
2021/09/10 06:07:18;;;;;;;18.38;13.93;;;17.40;77.40;;;;;;4832714;29;20045;-84
2021/09/10 06:23:10;;;;;;;14.95;12.13;;;17.70;77.30;;;;;;4789096;30;20077;-85
2021/09/10 06:35:56;;;;;;;12.88;10.50;;;18.10;77.40;;;;;;4731663;30;20059;-83
2021/09/10 06:41:45;;;;;;;13.65;9.85;;;18.20;77.50;;;;;;4734906;30;20093;-82
2021/09/10 06:47:39;;;;;;;14.18;10.07;;;18.40;77.30;;;;;;4826383;29;20046;-83
2021/09/10 06:53:35;;;;;;;15.18;10.93;;;18.60;77.50;;;;;;4826314;29;20033;-82
2021/09/10 06:59:31;;;;;;;16.95;11.20;;;18.70;76.80;;;;;;4826584;29;20041;-82
2021/09/10 07:05:27;;;;;;;13.50;8.98;;;18.90;77.00;;;;;;4830253;29;20054;-80
2021/09/10 07:11:21;;;;;;;13.82;9.10;;;19.00;77.00;;;;;;4826419;29;20068;-81
2021/09/10 07:17:14;;;;;;;12.48;8.65;;;19.20;76.80;;;;;;4826001;29;20081;-82
2021/09/10 07:23:07;;;;;;;12.02;8.15;;;19.40;77.00;;;;;;4826902;29;20464;-82
2021/09/10 07:29:00;;;;;;;13.45;8.90;;;19.70;76.80;;;;;;4826486;29;20078;-82
2021/09/10 08:14:07;;;;;;;9.45;6.35;;;21.60;74.90;;;;;;4814290;29;20073;-81
2021/09/10 08:20:12;;;;;;;10.43;6.45;;;21.90;74.40;;;;;;4825281;29;20102;-83
2021/09/10 08:26:04;;;;;;;14.90;6.20;;;22.30;74.40;;;;;;4825173;29;20049;-82
2021/09/10 08:31:53;;;;;;;9.60;6.07;;;22.60;73.40;;;;;;4827430;29;20052;-82
2021/09/10 08:37:42;;;;;;;11.25;5.97;;;22.90;72.80;;;;;;4825660;29;20197;-82
2021/09/10 08:43:31;;;;;;;10.25;6.20;;;23.10;72.20;;;;;;4824944;29;20449;-82
2021/09/10 08:49:26;;;;;;;9.52;6.00;;;23.30;71.60;;;;;;4824718;29;20037;-82
2021/09/10 08:55:16;;;;;;;9.48;5.07;;;23.60;71.20;;;;;;4824975;29;20037;-86
2021/09/10 09:01:06;;;;;;;10.52;5.07;;;23.90;70.80;;;;;;4825234;29;20160;-88
2021/09/10 09:06:56;;;;;;;10.18;5.13;;;24.30;70.20;;;;;;4826381;29;20130;-86
2021/09/10 09:13:08;;;;;;;8.70;5.15;;;24.70;68.90;;;;;;4825579;29;20528;-84
2021/09/10 09:25:58;;;;;;;8.07;4.70;;;25.30;67.10;;;;;;4781604;29;20095;-88
2021/09/10 09:31:58;;;;;;;7.93;4.55;;;25.60;66.50;;;;;;4826090;29;20535;-85
2021/09/10 12:42:00;;;;;;;7.10;3.55;;;44.20;28.40;;;;;;4821971;29;20093;-81
2021/09/10 12:48:27;;;;;;;;;;;;;;;;;;;;;
2021/09/10 12:54:28;;;;;;;6.25;3.35;;;40.80;29.90;;;;;;4826899;29;20042;-81
2021/09/10 13:14:08;;;;;;;5.25;3.25;;;41.20;27.90;;;;;;4800074;29;20087;-81
2021/09/10 15:25:21;;;;;;;;;;;;;;;;;;;;;
2021/09/10 15:31:23;;;;;;;7.22;3.60;;;34.90;28.50;;;;;;4789865;30;20050;-80
2021/09/10 15:44:05;;;;;;;8.65;3.08;;;33.30;29.40;;;;;;4761447;29;20104;-78
2021/09/10 16:11:20;;;;;;;7.70;4.13;;;30.80;33.00;;;;;;4789413;30;20038;-85
2021/09/10 16:17:10;;;;;;;7.97;4.30;;;30.30;33.90;;;;;;4788781;30;20077;-85
2021/09/10 16:23:03;;;;;;;8.15;4.20;;;29.90;34.80;;;;;;4788870;30;20039;-84
2021/09/10 16:29:19;;;;;;;9.60;6.47;;;29.60;35.70;;;;;;4788654;30;20503;-85
2021/09/10 16:35:10;;;;;;;8.30;4.38;;;28.90;37.20;;;;;;4788594;30;20088;-86
2021/09/10 16:40:59;;;;;;;6.68;3.60;;;28.30;38.70;;;;;;4807550;29;20057;-85
2021/09/10 16:46:53;;;;;;;7.60;3.83;;;28.00;39.80;;;;;;4810371;29;20564;-85
2021/09/10 16:52:48;;;;;;;7.68;3.70;;;27.90;40.70;;;;;;4810014;29;20073;-85
2021/09/10 16:58:42;;;;;;;7.88;3.80;;;28.00;40.60;;;;;;4809954;29;20087;-85
2021/09/10 17:04:31;;;;;;;8.48;3.75;;;27.80;40.90;;;;;;4812542;29;20077;-93
2021/09/10 17:14:29;;;;;;;8.30;3.50;;;27.30;41.40;;;;;;4827515;29;20095;-85
2021/09/10 17:20:19;;;;;;;8.52;4.10;;;26.80;42.20;;;;;;4827622;29;20030;-83
2021/09/10 17:26:08;;;;;;;9.43;4.72;;;26.50;42.80;;;;;;4831304;29;20071;-87
2021/09/10 17:32:00;;;;;;;9.50;4.40;;;26.30;43.10;;;;;;4835428;29;20503;-87
2021/09/10 17:37:51;;;;;;;12.20;9.10;;;26.00;43.30;;;;;;4840597;29;20042;-92
2021/09/10 20:22:48;;;;;;;;;;;;;;;;;;;;;
